createdAt,value
2023-02-13T13:25:03.953Z,24.80
2023-02-13T13:26:04.186Z,24.50
2023-02-13T13:27:03.535Z,24.20
2023-02-13T13:28:03.543Z,24.80
2023-02-13T13:29:03.624Z,22.80
2023-02-13T13:30:03.590Z,24.60
2023-02-13T13:31:03.844Z,24.30
2023-02-13T13:32:03.862Z,23.60
2023-02-13T13:33:03.767Z,22.50
2023-02-13T13:34:03.754Z,23.40
2023-02-13T13:35:03.744Z,21.90
2023-02-13T13:36:03.530Z,22.60
2023-02-13T13:37:03.722Z,23.30
2023-02-13T13:38:03.708Z,23.30
2023-02-13T13:39:03.718Z,22.50
2023-02-13T13:40:03.710Z,23.20
2023-02-13T13:41:03.666Z,22.60
2023-02-13T13:42:03.598Z,22.50
2023-02-13T13:43:03.826Z,20.90
2023-02-13T13:44:03.595Z,21.70
2023-02-13T13:45:03.718Z,22.60
2023-02-13T13:46:03.687Z,21.50
2023-02-13T13:47:03.718Z,21.30
2023-02-13T13:48:03.612Z,21.80
2023-02-13T13:49:03.862Z,22.20
2023-02-13T13:50:03.838Z,21.80
2023-02-13T13:51:03.677Z,22.00
2023-02-13T13:52:04.223Z,21.90
2023-02-13T13:53:03.668Z,22.70
2023-02-13T13:54:03.636Z,21.60
2023-02-13T13:55:03.794Z,21.30
2023-02-13T13:56:03.733Z,21.60
2023-02-13T13:57:03.739Z,22.00
2023-02-13T13:58:03.685Z,20.20
2023-02-13T13:59:03.638Z,21.20
2023-02-13T14:00:03.710Z,21.80
2023-02-13T14:01:03.823Z,21.30
2023-02-13T14:02:03.947Z,20.80
2023-02-13T14:03:03.813Z,21.50
2023-02-13T14:04:03.901Z,21.20
2023-02-13T14:05:03.805Z,21.50
2023-02-13T14:06:03.805Z,20.90
2023-02-13T14:07:03.785Z,21.50
2023-02-13T14:08:03.753Z,21.40
2023-02-13T14:09:03.849Z,21.30
2023-02-13T14:10:03.670Z,21.80
2023-02-13T14:11:03.804Z,21.30
2023-02-13T14:12:03.826Z,21.40
2023-02-13T14:13:03.680Z,20.90
2023-02-13T14:14:03.673Z,21.20
2023-02-13T14:15:03.745Z,19.80
2023-02-13T14:16:03.798Z,20.80
2023-02-13T14:17:03.878Z,20.30
